Dauntless Aviation
Airports Europe Russia
URMS
IGT

Magas Airport

Sunzha, RUSSIA

Airport Info
Suggest Updated Information for this Airport

Location

Latitude / Longitude: 43°19'23"N / 45°0'45"E
  43°19.398'N / 45°0.756'E
  43.3233 / 45.0126
Satellite photo at:
Airport distance calculator
From:
Weather Reports

METAR

URMO
19.5nm SW
URMO 181730Z 28006MPS 9999 BKN020 BKN073 28/16 Q1009 R27/010070 NOSIG RMK QFE712/0950
URMG
30.1nm NE
URMG 181730Z VRB01MPS CAVOK 29/17 Q1005 R08/090070 NOSIG RMK QFE739/0986

TAF

URMO
19.5nm SW
TAF URMO 181400Z 1815/1824 26003G08MPS 9999 BKN030 TEMPO 1815/1818 29006G14MPS 6000 -SHRA BKN016 BKN030CB
URMG
30.1nm NE
TAF URMG 181400Z 1815/1824 27003G08MPS 9999 BKN030 TEMPO 1815/1824 29006G14MPS 6000 -SHRA BKN016 BKN030CB
Safelog

 

Dauntless Aviation

© 2007-2022 Dauntless Aviation, all rights reserved
Information provided via PilotNav comes from a variety of official and unofficial data sources. As errors are possible, do not use PilotNav for primary flight planning purposes. Verify any information that you receive via PilotNav with current and canonical charts and other official documents. The material in this database is subject to database copyrights held by Dauntless Aviation and may not be copied without the express permission of Dauntless Aviation - licenses for use of part of all of this data are available for purchase; enquire via the Dauntless Aviation helpdesk. A number of mechanisms and markers exist in the database to protect against and identify infringement / copyright. Automated queries against this website are strictly prohibited, and all activity is logged and analyzed.